sensor_id;sensor_type;location;lat;lon;timestamp;pressure;altitude;pressure_sealevel;temperature;humidity
56052;BME280;41919;42.648;23.384;2022-08-19T00:01:30;94270.56;;;21.03;55.82
56052;BME280;41919;42.648;23.384;2022-08-19T00:03:58;94292.72;;;21.28;55.74
56052;BME280;41919;42.648;23.384;2022-08-19T00:06:25;94348.31;;;21.64;55.19
56052;BME280;41919;42.648;23.384;2022-08-19T00:08:51;94354.13;;;21.71;55.02
56052;BME280;41919;42.648;23.384;2022-08-19T00:11:16;94316.50;;;21.53;54.71
56052;BME280;41919;42.648;23.384;2022-08-19T00:13:42;94354.22;;;21.90;54.22
56052;BME280;41919;42.648;23.384;2022-08-19T00:16:07;94345.88;;;22.02;53.77
56052;BME280;41919;42.648;23.384;2022-08-19T00:18:33;94354.03;;;22.10;53.38
56052;BME280;41919;42.648;23.384;2022-08-19T00:20:59;94298.13;;;21.86;53.04
56052;BME280;41919;42.648;23.384;2022-08-19T00:23:25;94321.19;;;22.20;52.58
56052;BME280;41919;42.648;23.384;2022-08-19T00:25:51;94356.63;;;22.45;52.50
56052;BME280;41919;42.648;23.384;2022-08-19T00:28:17;94299.91;;;22.20;52.23
56052;BME280;41919;42.648;23.384;2022-08-19T00:30:43;94353.25;;;22.63;51.85
56052;BME280;41919;42.648;23.384;2022-08-19T00:33:08;94358.69;;;22.77;51.56
56052;BME280;41919;42.648;23.384;2022-08-19T00:35:36;94320.59;;;22.52;51.24
56052;BME280;41919;42.648;23.384;2022-08-19T00:38:03;94334.41;;;22.79;51.07
56052;BME280;41919;42.648;23.384;2022-08-19T00:40:32;94298.78;;;22.75;54.35
56052;BME280;41919;42.648;23.384;2022-08-19T00:42:57;94344.94;;;23.32;55.40
56052;BME280;41919;42.648;23.384;2022-08-19T00:45:26;94351.97;;;23.61;53.63
56052;BME280;41919;42.648;23.384;2022-08-19T00:47:52;94337.31;;;23.77;50.67
56052;BME280;41919;42.648;23.384;2022-08-19T00:50:19;94304.13;;;23.83;50.26
56052;BME280;41919;42.648;23.384;2022-08-19T00:52:49;94299.00;;;23.87;48.63
56052;BME280;41919;42.648;23.384;2022-08-19T00:55:22;94302.19;;;23.89;48.50
56052;BME280;41919;42.648;23.384;2022-08-19T00:57:53;94345.75;;;24.17;48.42
56052;BME280;41919;42.648;23.384;2022-08-19T01:00:23;94349.91;;;24.23;47.44
56052;BME280;41919;42.648;23.384;2022-08-19T01:02:49;94268.16;;;23.48;47.67
56052;BME280;41919;42.648;23.384;2022-08-19T01:05:23;94352.78;;;23.61;48.64
56052;BME280;41919;42.648;23.384;2022-08-19T01:07:49;94342.50;;;23.17;49.73
56052;BME280;41919;42.648;23.384;2022-08-19T01:10:20;94345.72;;;22.89;50.73
56052;BME280;41919;42.648;23.384;2022-08-19T01:12:47;94351.72;;;22.57;51.68
56052;BME280;41919;42.648;23.384;2022-08-19T01:15:17;94325.47;;;22.21;52.33
56052;BME280;41919;42.648;23.384;2022-08-19T01:17:44;94361.63;;;22.27;52.76
56052;BME280;41919;42.648;23.384;2022-08-19T01:20:16;94307.66;;;21.63;53.82
56052;BME280;41919;42.648;23.384;2022-08-19T01:22:58;94306.09;;;21.18;55.45
56052;BME280;41919;42.648;23.384;2022-08-19T01:25:49;94303.63;;;20.87;56.69
56052;BME280;41919;42.648;23.384;2022-08-19T01:28:24;94295.25;;;20.54;57.97
56052;BME280;41919;42.648;23.384;2022-08-19T01:30:54;94355.19;;;20.70;58.87
56052;BME280;41919;42.648;23.384;2022-08-19T01:33:20;94342.22;;;20.53;59.39
56052;BME280;41919;42.648;23.384;2022-08-19T01:35:47;94356.31;;;20.44;60.08
56052;BME280;41919;42.648;23.384;2022-08-19T01:38:25;94352.63;;;20.40;60.55
56052;BME280;41919;42.648;23.384;2022-08-19T01:40:53;94346.03;;;20.11;61.30
56052;BME280;41919;42.648;23.384;2022-08-19T01:43:19;94363.84;;;20.01;62.31
56052;BME280;41919;42.648;23.384;2022-08-19T01:45:46;94283.53;;;19.44;62.66
56052;BME280;41919;42.648;23.384;2022-08-19T01:48:12;94351.94;;;19.77;63.11
56052;BME280;41919;42.648;23.384;2022-08-19T01:50:37;94342.91;;;19.78;63.14
56052;BME280;41919;42.648;23.384;2022-08-19T01:53:05;94297.84;;;19.53;62.65
56052;BME280;41919;42.648;23.384;2022-08-19T01:55:31;94342.63;;;19.95;62.03
56052;BME280;41919;42.648;23.384;2022-08-19T01:57:59;94349.50;;;20.07;61.74
56052;BME280;41919;42.648;23.384;2022-08-19T02:00:27;94245.09;;;19.46;60.99
56052;BME280;41919;42.648;23.384;2022-08-19T02:02:54;94334.13;;;20.09;61.10
56052;BME280;41919;42.648;23.384;2022-08-19T02:05:20;94352.34;;;20.36;60.47
56052;BME280;41919;42.648;23.384;2022-08-19T02:07:47;94336.47;;;20.31;60.08
56052;BME280;41919;42.648;23.384;2022-08-19T02:10:20;94353.09;;;20.67;59.46
56052;BME280;41919;42.648;23.384;2022-08-19T02:12:46;94340.81;;;20.82;58.85
56052;BME280;41919;42.648;23.384;2022-08-19T02:15:12;94335.41;;;21.02;58.48
56052;BME280;41919;42.648;23.384;2022-08-19T02:17:39;94296.19;;;20.84;57.78
56052;BME280;41919;42.648;23.384;2022-08-19T02:20:05;94352.47;;;21.35;57.39
56052;BME280;41919;42.648;23.384;2022-08-19T02:22:31;94335.13;;;21.43;56.52
56052;BME280;41919;42.648;23.384;2022-08-19T02:24:57;94317.03;;;21.50;56.23
56052;BME280;41919;42.648;23.384;2022-08-19T02:27:23;94302.44;;;21.48;55.79
56052;BME280;41919;42.648;23.384;2022-08-19T02:29:49;94356.06;;;21.89;55.43
56052;BME280;41919;42.648;23.384;2022-08-19T02:32:16;94361.84;;;22.02;54.84
56052;BME280;41919;42.648;23.384;2022-08-19T02:34:42;94332.88;;;21.95;54.74
56052;BME280;41919;42.648;23.384;2022-08-19T02:37:07;94311.44;;;21.86;54.16
56052;BME280;41919;42.648;23.384;2022-08-19T02:39:56;94358.19;;;22.22;53.97
56052;BME280;41919;42.648;23.384;2022-08-19T02:42:21;94307.06;;;21.96;53.83
56052;BME280;41919;42.648;23.384;2022-08-19T02:44:47;94312.31;;;21.77;53.93
56052;BME280;41919;42.648;23.384;2022-08-19T02:47:12;94310.94;;;21.50;54.68
56052;BME280;41919;42.648;23.384;2022-08-19T02:49:39;94372.75;;;21.66;55.27
56052;BME280;41919;42.648;23.384;2022-08-19T02:52:05;94357.41;;;21.58;55.33
56052;BME280;41919;42.648;23.384;2022-08-19T02:54:30;94326.66;;;21.46;55.12
56052;BME280;41919;42.648;23.384;2022-08-19T02:56:56;94347.66;;;21.48;55.14
56052;BME280;41919;42.648;23.384;2022-08-19T02:59:21;94368.13;;;21.42;55.99
56052;BME280;41919;42.648;23.384;2022-08-19T03:01:46;94329.41;;;20.81;57.14
56052;BME280;41919;42.648;23.384;2022-08-19T03:04:14;94316.22;;;20.50;57.97
56052;BME280;41919;42.648;23.384;2022-08-19T03:06:43;94341.47;;;20.43;59.02
56052;BME280;41919;42.648;23.384;2022-08-19T03:09:09;94366.44;;;20.31;60.37
56052;BME280;41919;42.648;23.384;2022-08-19T03:11:35;94360.16;;;19.96;61.88
56052;BME280;41919;42.648;23.384;2022-08-19T03:14:02;94362.53;;;19.77;62.79
56052;BME280;41919;42.648;23.384;2022-08-19T03:16:31;94365.94;;;19.63;63.47
56052;BME280;41919;42.648;23.384;2022-08-19T03:18:57;94293.81;;;19.04;64.25
56052;BME280;41919;42.648;23.384;2022-08-19T03:21:28;94360.09;;;19.35;65.02
56052;BME280;41919;42.648;23.384;2022-08-19T03:23:55;94312.59;;;18.92;65.34
56052;BME280;41919;42.648;23.384;2022-08-19T03:26:20;94361.34;;;19.12;66.08
56052;BME280;41919;42.648;23.384;2022-08-19T03:28:46;94351.53;;;19.02;66.49
56052;BME280;41919;42.648;23.384;2022-08-19T03:31:16;94361.63;;;19.05;66.68
56052;BME280;41919;42.648;23.384;2022-08-19T03:33:43;94344.13;;;18.94;66.42
56052;BME280;41919;42.648;23.384;2022-08-19T03:36:13;94367.75;;;19.16;65.74
56052;BME280;41919;42.648;23.384;2022-08-19T03:38:59;94367.50;;;19.23;65.66
56052;BME280;41919;42.648;23.384;2022-08-19T03:41:37;94314.44;;;18.82;65.88
56052;BME280;41919;42.648;23.384;2022-08-19T03:44:03;94322.41;;;18.97;64.92
56052;BME280;41919;42.648;23.384;2022-08-19T03:46:32;94373.63;;;19.44;64.66
56052;BME280;41919;42.648;23.384;2022-08-19T03:48:59;94319.03;;;19.27;63.93
56052;BME280;41919;42.648;23.384;2022-08-19T03:51:29;94386.94;;;20.00;62.89
56052;BME280;41919;42.648;23.384;2022-08-19T03:53:57;94359.59;;;20.10;61.47
56052;BME280;41919;42.648;23.384;2022-08-19T03:56:24;94380.75;;;20.30;60.97
56052;BME280;41919;42.648;23.384;2022-08-19T03:58:56;94329.91;;;20.08;60.47
56052;BME280;41919;42.648;23.384;2022-08-19T04:01:24;94366.97;;;20.33;60.87
56052;BME280;41919;42.648;23.384;2022-08-19T04:03:52;94379.91;;;20.66;60.06
56052;BME280;41919;42.648;23.384;2022-08-19T04:06:27;94339.06;;;20.46;59.43
56052;BME280;41919;42.648;23.384;2022-08-19T04:08:54;94330.81;;;20.53;59.04
56052;BME280;41919;42.648;23.384;2022-08-19T04:11:24;94390.69;;;20.90;59.38
56052;BME280;41919;42.648;23.384;2022-08-19T04:13:51;94408.72;;;21.03;59.13
56052;BME280;41919;42.648;23.384;2022-08-19T04:16:22;94403.13;;;21.00;58.75
56052;BME280;41919;42.648;23.384;2022-08-19T04:18:48;94411.53;;;21.22;57.83
56052;BME280;41919;42.648;23.384;2022-08-19T04:21:20;94400.09;;;21.27;57.45
56052;BME280;41919;42.648;23.384;2022-08-19T04:23:47;94407.75;;;21.39;57.24
56052;BME280;41919;42.648;23.384;2022-08-19T04:26:17;94314.78;;;20.79;57.04
56052;BME280;41919;42.648;23.384;2022-08-19T04:28:43;94408.22;;;21.51;56.80
56052;BME280;41919;42.648;23.384;2022-08-19T04:31:14;94422.19;;;21.72;56.58
56052;BME280;41919;42.648;23.384;2022-08-19T04:33:40;94380.75;;;21.66;56.11
56052;BME280;41919;42.648;23.384;2022-08-19T04:36:06;94418.38;;;21.83;55.98
56052;BME280;41919;42.648;23.384;2022-08-19T04:38:33;94391.91;;;21.68;56.04
56052;BME280;41919;42.648;23.384;2022-08-19T04:40:58;94355.50;;;21.63;56.04
56052;BME280;41919;42.648;23.384;2022-08-19T04:43:42;94413.03;;;21.88;56.96
56052;BME280;41919;42.648;23.384;2022-08-19T04:46:13;94357.97;;;21.84;56.33
56052;BME280;41919;42.648;23.384;2022-08-19T04:48:39;94377.97;;;22.10;55.70
56052;BME280;41919;42.648;23.384;2022-08-19T04:51:08;94392.13;;;22.40;55.13
56052;BME280;41919;42.648;23.384;2022-08-19T04:53:35;94342.13;;;22.32;54.61
56052;BME280;41919;42.648;23.384;2022-08-19T04:56:07;94386.69;;;22.75;54.56
56052;BME280;41919;42.648;23.384;2022-08-19T04:58:34;94376.19;;;22.83;53.97
56052;BME280;41919;42.648;23.384;2022-08-19T05:01:01;94396.81;;;23.21;52.88
56052;BME280;41919;42.648;23.384;2022-08-19T05:03:26;94400.94;;;23.51;52.00
56052;BME280;41919;42.648;23.384;2022-08-19T05:05:52;94407.34;;;23.88;51.22
56052;BME280;41919;42.648;23.384;2022-08-19T05:08:20;94412.41;;;24.22;50.50
56052;BME280;41919;42.648;23.384;2022-08-19T05:10:49;94395.47;;;24.60;49.37
56052;BME280;41919;42.648;23.384;2022-08-19T05:13:17;94415.47;;;25.18;47.04
56052;BME280;41919;42.648;23.384;2022-08-19T05:15:43;94370.31;;;25.30;46.40
56052;BME280;41919;42.648;23.384;2022-08-19T05:18:09;94374.38;;;25.64;45.47
56052;BME280;41919;42.648;23.384;2022-08-19T05:20:53;94402.00;;;26.41;44.69
56052;BME280;41919;42.648;23.384;2022-08-19T05:23:38;94368.31;;;26.49;43.61
56052;BME280;41919;42.648;23.384;2022-08-19T05:26:04;94403.66;;;26.99;43.14
56052;BME280;41919;42.648;23.384;2022-08-19T05:28:30;94385.66;;;26.91;43.46
56052;BME280;41919;42.648;23.384;2022-08-19T05:30:56;94376.31;;;27.37;42.41
56052;BME280;41919;42.648;23.384;2022-08-19T05:33:22;94393.09;;;27.95;41.45
56052;BME280;41919;42.648;23.384;2022-08-19T05:35:48;94397.94;;;28.37;40.44
56052;BME280;41919;42.648;23.384;2022-08-19T05:38:15;94400.88;;;29.00;38.98
56052;BME280;41919;42.648;23.384;2022-08-19T05:40:42;94345.47;;;29.08;38.32
56052;BME280;41919;42.648;23.384;2022-08-19T05:43:15;94406.91;;;29.99;36.98
56052;BME280;41919;42.648;23.384;2022-08-19T05:45:42;94397.63;;;30.08;36.86
56052;BME280;41919;42.648;23.384;2022-08-19T05:48:11;94363.63;;;30.37;35.20
56052;BME280;41919;42.648;23.384;2022-08-19T05:50:39;94382.56;;;30.99;34.84
56052;BME280;41919;42.648;23.384;2022-08-19T05:53:05;94388.75;;;31.36;34.11
56052;BME280;41919;42.648;23.384;2022-08-19T05:55:31;94369.66;;;31.70;32.92
56052;BME280;41919;42.648;23.384;2022-08-19T05:57:57;94395.34;;;32.32;32.44
56052;BME280;41919;42.648;23.384;2022-08-19T06:00:23;94372.91;;;32.60;31.15
56052;BME280;41919;42.648;23.384;2022-08-19T06:02:48;94404.66;;;33.27;30.91
56052;BME280;41919;42.648;23.384;2022-08-19T06:05:14;94370.75;;;33.33;30.25
56052;BME280;41919;42.648;23.384;2022-08-19T06:07:40;94398.88;;;33.44;30.05
56052;BME280;41919;42.648;23.384;2022-08-19T06:10:08;94371.44;;;33.10;29.83
56052;BME280;41919;42.648;23.384;2022-08-19T06:12:35;94404.94;;;33.06;30.70
56052;BME280;41919;42.648;23.384;2022-08-19T06:15:08;94386.44;;;33.24;30.15
56052;BME280;41919;42.648;23.384;2022-08-19T06:17:34;94332.41;;;32.79;30.59
56052;BME280;41919;42.648;23.384;2022-08-19T06:20:01;94394.38;;;33.16;30.34
56052;BME280;41919;42.648;23.384;2022-08-19T06:22:27;94418.50;;;33.22;29.97
56052;BME280;41919;42.648;23.384;2022-08-19T06:24:53;94418.00;;;33.87;29.36
56052;BME280;41919;42.648;23.384;2022-08-19T06:27:19;94409.63;;;34.54;27.76
56052;BME280;41919;42.648;23.384;2022-08-19T06:29:45;94418.75;;;35.34;26.87
56052;BME280;41919;42.648;23.384;2022-08-19T06:32:14;94422.56;;;35.83;26.11
56052;BME280;41919;42.648;23.384;2022-08-19T06:34:40;94400.09;;;36.20;25.24
56052;BME280;41919;42.648;23.384;2022-08-19T06:37:06;94391.94;;;36.20;25.28
56052;BME280;41919;42.648;23.384;2022-08-19T06:39:35;94413.13;;;36.38;25.27
56052;BME280;41919;42.648;23.384;2022-08-19T06:42:03;94371.31;;;36.57;25.07
56052;BME280;41919;42.648;23.384;2022-08-19T06:44:33;94400.50;;;36.22;25.40
56052;BME280;41919;42.648;23.384;2022-08-19T06:47:02;94387.88;;;36.07;25.90
56052;BME280;41919;42.648;23.384;2022-08-19T06:49:28;94409.28;;;36.42;25.16
56052;BME280;41919;42.648;23.384;2022-08-19T06:51:56;94365.34;;;36.06;25.80
56052;BME280;41919;42.648;23.384;2022-08-19T06:54:22;94398.94;;;36.96;24.46
56052;BME280;41919;42.648;23.384;2022-08-19T06:56:48;94378.38;;;36.61;24.86
56052;BME280;41919;42.648;23.384;2022-08-19T06:59:19;94374.75;;;36.91;23.79
56052;BME280;41919;42.648;23.384;2022-08-19T07:01:47;94418.50;;;37.13;24.53
56052;BME280;41919;42.648;23.384;2022-08-19T07:04:16;94388.75;;;36.89;24.39
56052;BME280;41919;42.648;23.384;2022-08-19T07:06:43;94423.59;;;36.36;25.12
56052;BME280;41919;42.648;23.384;2022-08-19T07:09:10;94425.72;;;36.53;24.46
56052;BME280;41919;42.648;23.384;2022-08-19T07:11:36;94417.69;;;37.08;24.08
56052;BME280;41919;42.648;23.384;2022-08-19T07:14:02;94415.06;;;36.71;24.54
56052;BME280;41919;42.648;23.384;2022-08-19T07:16:28;94417.78;;;36.37;25.02
56052;BME280;41919;42.648;23.384;2022-08-19T07:18:55;94371.00;;;36.21;24.79
56052;BME280;41919;42.648;23.384;2022-08-19T07:21:25;94381.06;;;36.20;24.58
56052;BME280;41919;42.648;23.384;2022-08-19T07:23:53;94419.50;;;36.53;24.69
56052;BME280;41919;42.648;23.384;2022-08-19T07:26:25;94402.75;;;36.88;24.09
56052;BME280;41919;42.648;23.384;2022-08-19T07:28:51;94384.88;;;36.16;24.39
56052;BME280;41919;42.648;23.384;2022-08-19T07:31:20;94379.59;;;35.66;25.37
56052;BME280;41919;42.648;23.384;2022-08-19T07:33:47;94405.13;;;36.18;25.27
56052;BME280;41919;42.648;23.384;2022-08-19T07:36:16;94385.28;;;35.84;25.23
56052;BME280;41919;42.648;23.384;2022-08-19T07:38:44;94386.13;;;36.22;24.45
56052;BME280;41919;42.648;23.384;2022-08-19T07:41:12;94416.16;;;36.66;24.42
56052;BME280;41919;42.648;23.384;2022-08-19T07:43:39;94403.78;;;36.73;23.91
56052;BME280;41919;42.648;23.384;2022-08-19T07:46:05;94402.09;;;36.23;25.13
56052;BME280;41919;42.648;23.384;2022-08-19T07:48:31;94400.25;;;36.01;25.14
56052;BME280;41919;42.648;23.384;2022-08-19T07:51:00;94419.19;;;35.67;25.99
56052;BME280;41919;42.648;23.384;2022-08-19T07:53:30;94389.91;;;35.26;26.15
56052;BME280;41919;42.648;23.384;2022-08-19T07:55:56;94404.06;;;36.26;25.91
56052;BME280;41919;42.648;23.384;2022-08-19T07:58:29;94382.00;;;36.73;24.38
56052;BME280;41919;42.648;23.384;2022-08-19T08:00:54;94409.63;;;37.19;23.96
56052;BME280;41919;42.648;23.384;2022-08-19T08:03:21;94408.72;;;37.56;23.22
56052;BME280;41919;42.648;23.384;2022-08-19T08:06:07;94386.66;;;37.79;22.62
56052;BME280;41919;42.648;23.384;2022-08-19T08:08:51;94418.38;;;38.16;22.51
56052;BME280;41919;42.648;23.384;2022-08-19T08:11:35;94381.16;;;37.65;22.83
56052;BME280;41919;42.648;23.384;2022-08-19T08:14:01;94378.28;;;36.95;23.58
56052;BME280;41919;42.648;23.384;2022-08-19T08:16:26;94367.66;;;36.38;24.45
56052;BME280;41919;42.648;23.384;2022-08-19T08:18:55;94403.59;;;36.17;24.77
56052;BME280;41919;42.648;23.384;2022-08-19T08:21:20;94408.13;;;36.09;25.24
56052;BME280;41919;42.648;23.384;2022-08-19T08:23:46;94398.81;;;35.50;25.78
56052;BME280;41919;42.648;23.384;2022-08-19T08:26:11;94405.63;;;35.13;26.12
56052;BME280;41919;42.648;23.384;2022-08-19T08:28:38;94399.00;;;35.38;26.76
56052;BME280;41919;42.648;23.384;2022-08-19T08:31:03;94401.13;;;35.51;26.44
56052;BME280;41919;42.648;23.384;2022-08-19T08:33:29;94399.03;;;35.14;27.10
56052;BME280;41919;42.648;23.384;2022-08-19T08:35:55;94409.84;;;35.64;26.61
56052;BME280;41919;42.648;23.384;2022-08-19T08:38:21;94396.50;;;36.12;25.82
56052;BME280;41919;42.648;23.384;2022-08-19T08:43:29;94391.09;;;36.91;24.62
56052;BME280;41919;42.648;23.384;2022-08-19T08:46:06;94385.03;;;37.12;23.89
56052;BME280;41919;42.648;23.384;2022-08-19T08:51:34;94386.28;;;37.18;23.40
56052;BME280;41919;42.648;23.384;2022-08-19T08:54:05;94379.72;;;37.26;22.76
56052;BME280;41919;42.648;23.384;2022-08-19T08:56:32;94368.09;;;37.33;22.70
56052;BME280;41919;42.648;23.384;2022-08-19T08:59:30;94381.06;;;37.54;22.50
56052;BME280;41919;42.648;23.384;2022-08-19T09:01:59;94380.53;;;37.31;21.63
56052;BME280;41919;42.648;23.384;2022-08-19T09:04:25;94345.44;;;36.74;21.83
56052;BME280;41919;42.648;23.384;2022-08-19T09:09:50;94331.25;;;36.98;22.46
56052;BME280;41919;42.648;23.384;2022-08-19T09:12:31;94329.78;;;37.12;22.30
56052;BME280;41919;42.648;23.384;2022-08-19T09:15:11;94362.72;;;37.47;21.48
56052;BME280;41919;42.648;23.384;2022-08-19T09:17:37;94358.50;;;37.57;21.98
56052;BME280;41919;42.648;23.384;2022-08-19T09:20:14;94362.84;;;37.69;21.56
56052;BME280;41919;42.648;23.384;2022-08-19T09:22:41;94329.22;;;37.47;20.46
56052;BME280;41919;42.648;23.384;2022-08-19T09:25:12;94317.00;;;37.16;20.51
56052;BME280;41919;42.648;23.384;2022-08-19T09:27:40;94317.78;;;36.68;21.32
56052;BME280;41919;42.648;23.384;2022-08-19T09:30:08;94349.19;;;36.58;21.56
56052;BME280;41919;42.648;23.384;2022-08-19T09:32:33;94361.53;;;36.48;22.45
56052;BME280;41919;42.648;23.384;2022-08-19T09:34:59;94313.56;;;36.33;21.69
56052;BME280;41919;42.648;23.384;2022-08-19T09:37:26;94348.50;;;36.68;21.08
56052;BME280;41919;42.648;23.384;2022-08-19T09:39:52;94343.19;;;36.83;21.08
56052;BME280;41919;42.648;23.384;2022-08-19T09:42:18;94312.66;;;36.63;20.71
56052;BME280;41919;42.648;23.384;2022-08-19T09:44:46;94350.53;;;36.75;20.87
56052;BME280;41919;42.648;23.384;2022-08-19T09:47:12;94339.88;;;35.84;21.55
56052;BME280;41919;42.648;23.384;2022-08-19T09:49:39;94339.91;;;35.58;22.11
56052;BME280;41919;42.648;23.384;2022-08-19T09:52:05;94343.44;;;35.92;21.06
56052;BME280;41919;42.648;23.384;2022-08-19T09:54:33;94312.28;;;35.86;21.27
56052;BME280;41919;42.648;23.384;2022-08-19T09:56:59;94336.78;;;35.59;20.97
56052;BME280;41919;42.648;23.384;2022-08-19T09:59:28;94340.25;;;35.26;22.54
56052;BME280;41919;42.648;23.384;2022-08-19T10:01:53;94341.56;;;35.12;22.34
56052;BME280;41919;42.648;23.384;2022-08-19T10:04:19;94334.41;;;35.24;22.57
56052;BME280;41919;42.648;23.384;2022-08-19T10:06:47;94326.53;;;35.45;21.94
56052;BME280;41919;42.648;23.384;2022-08-19T10:09:14;94293.69;;;35.01;22.37
56052;BME280;41919;42.648;23.384;2022-08-19T10:11:41;94277.72;;;34.95;22.60
56052;BME280;41919;42.648;23.384;2022-08-19T10:14:07;94322.88;;;35.34;21.82
56052;BME280;41919;42.648;23.384;2022-08-19T10:16:33;94328.31;;;35.34;21.84
56052;BME280;41919;42.648;23.384;2022-08-19T10:18:59;94272.53;;;35.13;22.18
56052;BME280;41919;42.648;23.384;2022-08-19T10:21:30;94271.09;;;35.20;21.38
56052;BME280;41919;42.648;23.384;2022-08-19T10:23:59;94321.44;;;35.40;21.96
56052;BME280;41919;42.648;23.384;2022-08-19T10:26:27;94317.78;;;35.29;22.05
56052;BME280;41919;42.648;23.384;2022-08-19T10:28:54;94322.47;;;35.32;22.35
56052;BME280;41919;42.648;23.384;2022-08-19T10:31:31;94315.50;;;35.31;21.97
56052;BME280;41919;42.648;23.384;2022-08-19T10:33:57;94282.78;;;34.97;22.28
56052;BME280;41919;42.648;23.384;2022-08-19T10:36:26;94310.56;;;35.13;21.76
56052;BME280;41919;42.648;23.384;2022-08-19T10:38:54;94312.34;;;34.75;22.19
56052;BME280;41919;42.648;23.384;2022-08-19T10:41:23;94277.00;;;34.26;22.52
56052;BME280;41919;42.648;23.384;2022-08-19T10:43:58;94256.16;;;33.29;23.28
56052;BME280;41919;42.648;23.384;2022-08-19T10:46:26;94296.94;;;33.36;23.78
56052;BME280;41919;42.648;23.384;2022-08-19T10:48:53;94307.69;;;33.52;23.89
56052;BME280;41919;42.648;23.384;2022-08-19T10:51:20;94260.31;;;33.42;23.87
56052;BME280;41919;42.648;23.384;2022-08-19T10:54:04;94302.03;;;33.76;23.83
56052;BME280;41919;42.648;23.384;2022-08-19T10:56:32;94255.25;;;33.60;24.33
56052;BME280;41919;42.648;23.384;2022-08-19T10:59:17;94260.44;;;33.49;24.06
56052;BME280;41919;42.648;23.384;2022-08-19T11:01:44;94237.50;;;33.43;23.83
56052;BME280;41919;42.648;23.384;2022-08-19T11:04:11;94282.22;;;33.72;23.99
56052;BME280;41919;42.648;23.384;2022-08-19T11:06:39;94252.16;;;33.62;23.63
56052;BME280;41919;42.648;23.384;2022-08-19T11:09:07;94278.78;;;33.75;24.39
56052;BME280;41919;42.648;23.384;2022-08-19T11:11:33;94290.28;;;33.69;23.92
56052;BME280;41919;42.648;23.384;2022-08-19T11:14:04;94234.06;;;33.46;24.32
56052;BME280;41919;42.648;23.384;2022-08-19T11:16:30;94252.31;;;33.49;23.95
56052;BME280;41919;42.648;23.384;2022-08-19T11:18:58;94238.13;;;33.17;23.90
56052;BME280;41919;42.648;23.384;2022-08-19T11:21:32;94284.91;;;33.33;23.94
56052;BME280;41919;42.648;23.384;2022-08-19T11:24:04;94287.63;;;33.33;24.55
56052;BME280;41919;42.648;23.384;2022-08-19T11:26:31;94282.75;;;33.23;24.09
56052;BME280;41919;42.648;23.384;2022-08-19T11:28:58;94232.53;;;32.90;24.74
56052;BME280;41919;42.648;23.384;2022-08-19T11:31:30;94276.97;;;33.25;24.45
56052;BME280;41919;42.648;23.384;2022-08-19T11:33:58;94237.91;;;33.06;24.57
56052;BME280;41919;42.648;23.384;2022-08-19T11:36:25;94236.22;;;33.17;25.08
56052;BME280;41919;42.648;23.384;2022-08-19T11:38:51;94263.50;;;33.48;24.61
56052;BME280;41919;42.648;23.384;2022-08-19T11:41:18;94258.75;;;33.41;23.98
56052;BME280;41919;42.648;23.384;2022-08-19T11:43:44;94267.81;;;33.49;24.25
56052;BME280;41919;42.648;23.384;2022-08-19T11:46:12;94265.28;;;33.59;24.33
56052;BME280;41919;42.648;23.384;2022-08-19T11:48:38;94206.56;;;33.25;24.71
56052;BME280;41919;42.648;23.384;2022-08-19T11:51:09;94180.00;;;33.11;24.61
56052;BME280;41919;42.648;23.384;2022-08-19T11:53:36;94211.56;;;33.42;25.00
56052;BME280;41919;42.648;23.384;2022-08-19T11:56:03;94258.47;;;33.85;24.85
56052;BME280;41919;42.648;23.384;2022-08-19T11:58:28;94262.59;;;33.79;24.78
56052;BME280;41919;42.648;23.384;2022-08-19T12:00:54;94206.00;;;33.35;24.43
56052;BME280;41919;42.648;23.384;2022-08-19T12:03:20;94207.00;;;33.27;24.41
56052;BME280;41919;42.648;23.384;2022-08-19T12:05:46;94209.00;;;33.30;24.70
56052;BME280;41919;42.648;23.384;2022-08-19T12:08:12;94221.38;;;33.31;24.33
56052;BME280;41919;42.648;23.384;2022-08-19T12:10:39;94200.03;;;33.26;24.01
56052;BME280;41919;42.648;23.384;2022-08-19T12:13:06;94239.38;;;33.39;24.61
56052;BME280;41919;42.648;23.384;2022-08-19T12:15:39;94231.59;;;33.37;24.73
56052;BME280;41919;42.648;23.384;2022-08-19T12:18:07;94230.75;;;33.33;24.43
56052;BME280;41919;42.648;23.384;2022-08-19T12:20:38;94185.06;;;33.12;24.78
56052;BME280;41919;42.648;23.384;2022-08-19T12:23:06;94177.63;;;33.09;24.62
56052;BME280;41919;42.648;23.384;2022-08-19T12:25:32;94165.69;;;33.10;24.59
56052;BME280;41919;42.648;23.384;2022-08-19T12:27:58;94223.88;;;33.59;24.69
56052;BME280;41919;42.648;23.384;2022-08-19T12:30:24;94208.56;;;33.67;24.65
56052;BME280;41919;42.648;23.384;2022-08-19T12:32:50;94174.66;;;33.34;25.13
56052;BME280;41919;42.648;23.384;2022-08-19T12:35:17;94169.50;;;33.48;25.31
56052;BME280;41919;42.648;23.384;2022-08-19T12:37:46;94156.69;;;33.45;24.57
56052;BME280;41919;42.648;23.384;2022-08-19T12:40:13;94193.56;;;33.73;25.31
56052;BME280;41919;42.648;23.384;2022-08-19T12:42:39;94199.25;;;33.87;25.06
56052;BME280;41919;42.648;23.384;2022-08-19T12:45:10;94165.78;;;33.56;24.68
56052;BME280;41919;42.648;23.384;2022-08-19T12:47:36;94209.84;;;33.96;24.86
56052;BME280;41919;42.648;23.384;2022-08-19T12:50:02;94194.81;;;33.98;24.19
56052;BME280;41919;42.648;23.384;2022-08-19T12:52:27;94211.38;;;34.16;24.42
56052;BME280;41919;42.648;23.384;2022-08-19T12:54:54;94196.13;;;34.08;24.18
56052;BME280;41919;42.648;23.384;2022-08-19T12:57:24;94175.00;;;33.94;24.78
56052;BME280;41919;42.648;23.384;2022-08-19T12:59:54;94198.56;;;33.94;24.99
56052;BME280;41919;42.648;23.384;2022-08-19T13:02:19;94156.91;;;33.59;25.11
56052;BME280;41919;42.648;23.384;2022-08-19T13:04:46;94185.25;;;33.62;25.47